createdAt,value
2023-01-17T07:08:21.255Z,68.15
2023-01-17T07:10:24.261Z,67.48
2023-01-17T07:12:26.969Z,66.89
2023-01-17T07:14:30.063Z,66.77
2023-01-17T07:16:32.882Z,66.62
2023-01-17T07:18:36.014Z,66.22
2023-01-17T07:20:39.090Z,65.74
2023-01-17T07:22:45.875Z,65.79
2023-01-17T07:24:49.874Z,65.64
2023-01-17T07:26:52.968Z,65.51
2023-01-17T07:28:55.731Z,65.47
2023-01-17T07:30:58.547Z,65.34
2023-01-17T07:33:02.421Z,65.15
2023-01-17T07:35:06.265Z,64.94
2023-01-17T07:37:09.070Z,64.94
2023-01-17T07:39:12.023Z,64.98
2023-01-17T07:41:16.084Z,64.74
2023-01-17T07:43:18.707Z,64.79
2023-01-17T07:45:21.920Z,64.32
2023-01-17T07:47:24.900Z,64.69
2023-01-17T07:49:27.544Z,64.22
2023-01-17T07:51:30.513Z,64.06
2023-01-17T07:53:33.547Z,64.13
2023-01-17T07:55:36.287Z,63.89
2023-01-17T07:57:40.642Z,63.79
2023-01-17T07:59:43.359Z,63.58
2023-01-17T08:01:46.449Z,63.40
2023-01-17T08:03:54.820Z,63.59
2023-01-17T08:05:58.104Z,63.33
2023-01-17T08:08:05.549Z,63.36
2023-01-17T08:10:12.922Z,63.42
2023-01-17T08:12:17.395Z,63.10
2023-01-17T08:14:21.404Z,63.42
2023-01-17T08:16:24.600Z,63.20
2023-01-17T08:18:27.493Z,63.19
2023-01-17T08:20:30.343Z,63.16
2023-01-17T08:22:33.566Z,62.90
2023-01-17T08:24:37.443Z,62.79
2023-01-17T08:26:40.570Z,62.95
2023-01-17T08:28:43.533Z,62.91
2023-01-17T08:30:47.645Z,62.54
2023-01-17T08:32:50.623Z,62.68
2023-01-17T08:34:53.425Z,62.77
2023-01-17T08:36:56.231Z,62.86
2023-01-17T08:38:59.018Z,62.86
2023-01-17T08:41:02.671Z,62.66
2023-01-17T08:43:05.453Z,62.67
2023-01-17T08:45:09.983Z,62.62
2023-01-17T08:47:14.184Z,62.57
2023-01-17T08:49:16.951Z,62.42
2023-01-17T08:51:19.722Z,62.15
2023-01-17T08:53:23.274Z,62.24
2023-01-17T08:55:26.559Z,62.14
2023-01-17T08:57:29.363Z,62.08
2023-01-17T08:59:32.319Z,61.79
2023-01-17T09:01:41.651Z,61.87
2023-01-17T09:03:46.913Z,62.04
2023-01-17T09:05:49.727Z,62.11
2023-01-17T09:07:52.544Z,62.11
2023-01-17T09:09:55.395Z,61.87
2023-01-17T09:11:58.475Z,61.86
2023-01-17T09:14:01.862Z,61.92
2023-01-17T09:16:06.079Z,61.67
2023-01-17T09:18:08.785Z,61.93
2023-01-17T09:20:14.003Z,61.85
2023-01-17T09:22:16.861Z,61.99
2023-01-17T09:24:20.054Z,61.81
2023-01-17T09:26:25.741Z,61.75
2023-01-17T09:28:29.234Z,61.80
2023-01-17T09:30:32.143Z,61.52
2023-01-17T09:32:35.275Z,61.94
2023-01-17T09:34:38.198Z,61.37
2023-01-17T09:36:43.879Z,61.54
2023-01-17T09:38:46.627Z,61.61
2023-01-17T09:40:49.867Z,61.62
2023-01-17T09:42:58.034Z,61.56
2023-01-17T09:45:01.079Z,61.50
2023-01-17T09:47:13.164Z,61.62
2023-01-17T09:49:27.663Z,61.39
2023-01-17T09:51:30.646Z,61.41
2023-01-17T09:53:37.493Z,61.41
2023-01-17T09:55:44.830Z,61.48
2023-01-17T09:58:00.203Z,61.52
2023-01-17T10:00:12.538Z,61.14
2023-01-17T10:02:42.229Z,61.31
2023-01-17T10:05:03.869Z,61.09
2023-01-17T10:07:18.973Z,61.28
2023-01-17T10:09:45.580Z,60.94
2023-01-17T10:12:03.036Z,61.19
2023-01-17T10:14:25.300Z,61.24
2023-01-17T10:16:38.823Z,61.26
2023-01-17T10:19:12.911Z,61.51
2023-01-17T10:21:23.005Z,61.29
2023-01-17T10:23:44.483Z,60.96
2023-01-17T10:25:50.090Z,60.67
2023-01-17T10:27:58.782Z,61.11
2023-01-17T10:30:04.841Z,60.90
2023-01-17T10:32:11.618Z,61.09
2023-01-17T10:34:18.193Z,61.10
2023-01-17T10:36:23.672Z,60.94
2023-01-17T10:38:31.891Z,61.04
2023-01-17T10:40:42.170Z,61.06
2023-01-17T10:42:55.466Z,61.07
2023-01-17T10:45:06.378Z,61.02
2023-01-17T10:47:19.187Z,60.93
2023-01-17T10:49:24.792Z,60.98
2023-01-17T10:51:43.909Z,60.67
2023-01-17T10:54:03.776Z,60.81
2023-01-17T10:56:07.845Z,60.77
2023-01-17T10:58:13.533Z,60.87
2023-01-17T11:00:29.657Z,60.91
2023-01-17T11:02:39.857Z,60.68
2023-01-17T11:04:47.347Z,60.72
2023-01-17T11:07:12.131Z,61.09
2023-01-17T11:09:15.733Z,60.83
2023-01-17T11:11:19.500Z,60.87
2023-01-17T11:13:29.181Z,60.91
2023-01-17T11:15:34.327Z,60.63
2023-01-17T11:17:39.011Z,60.61
2023-01-17T11:19:45.427Z,60.79
2023-01-17T11:21:53.237Z,60.78
2023-01-17T11:23:57.406Z,60.71
2023-01-17T11:26:03.558Z,60.81
2023-01-17T11:28:08.880Z,61.06
2023-01-17T11:30:18.776Z,60.84
2023-01-17T11:32:32.821Z,60.54
2023-01-17T11:34:35.583Z,60.76
2023-01-17T11:36:38.332Z,60.78
2023-01-17T11:38:41.583Z,60.57
2023-01-17T11:40:45.649Z,60.65
2023-01-17T11:43:00.337Z,60.44
2023-01-17T11:45:25.662Z,60.68
2023-01-17T11:47:28.497Z,60.67
2023-01-17T11:49:31.185Z,60.47
2023-01-17T11:51:41.329Z,60.50
2023-01-17T11:53:48.015Z,60.49
2023-01-17T11:56:05.371Z,60.47
2023-01-17T11:58:15.458Z,60.69
2023-01-17T12:00:23.497Z,60.60
2023-01-17T12:03:05.382Z,60.65
2023-01-17T12:05:29.012Z,60.40
2023-01-17T12:07:44.124Z,60.27
2023-01-17T12:09:58.063Z,60.25
2023-01-17T12:12:30.057Z,60.17
2023-01-17T12:14:44.163Z,59.99
2023-01-17T12:17:01.854Z,60.54
2023-01-17T12:19:28.701Z,60.02
2023-01-17T12:21:42.510Z,60.35
2023-01-17T12:24:17.224Z,60.28
2023-01-17T12:26:33.620Z,60.36
2023-01-17T12:28:59.387Z,60.38
2023-01-17T12:31:14.421Z,60.18
2023-01-17T12:33:25.113Z,60.12
2023-01-17T12:35:38.557Z,60.46
2023-01-17T12:37:45.162Z,60.42
2023-01-17T12:39:57.948Z,60.13
2023-01-17T12:42:06.886Z,60.16
2023-01-17T12:44:15.547Z,60.35
2023-01-17T12:46:23.961Z,60.21
2023-01-17T12:48:33.922Z,60.24
2023-01-17T12:50:43.380Z,60.30
2023-01-17T12:52:54.047Z,60.39
2023-01-17T12:55:03.132Z,60.21
2023-01-17T12:57:14.131Z,60.40
2023-01-17T12:59:23.097Z,60.33
2023-01-17T13:01:30.729Z,60.35
2023-01-17T13:03:47.282Z,60.11
2023-01-17T13:05:53.275Z,60.15
2023-01-17T13:08:02.106Z,59.93
2023-01-17T13:10:18.870Z,60.01
2023-01-17T13:12:23.733Z,60.01
2023-01-17T13:14:27.844Z,60.10
2023-01-17T13:16:35.139Z,59.83
2023-01-17T13:18:46.213Z,59.81
2023-01-17T13:21:04.892Z,59.88
2023-01-17T13:23:16.611Z,59.88
2023-01-17T13:25:38.044Z,59.95
2023-01-17T13:28:02.865Z,59.86
2023-01-17T13:30:24.767Z,59.88
2023-01-17T13:32:52.485Z,59.61
2023-01-17T13:35:15.071Z,59.82
2023-01-17T13:37:44.866Z,59.65
2023-01-17T13:40:06.368Z,59.86
2023-01-17T13:42:13.833Z,59.82
2023-01-17T13:44:22.920Z,59.71
2023-01-17T13:46:25.662Z,59.52
2023-01-17T13:48:33.282Z,59.81
2023-01-17T13:50:52.955Z,59.76
2023-01-17T13:52:58.045Z,59.88
2023-01-17T13:55:02.570Z,59.87
2023-01-17T13:57:40.078Z,60.02
2023-01-17T13:59:42.749Z,59.81
2023-01-17T14:02:03.384Z,59.97
2023-01-17T14:04:08.555Z,59.91
2023-01-17T14:06:30.447Z,59.84
2023-01-17T14:08:38.706Z,59.64
2023-01-17T14:10:45.101Z,60.06
2023-01-17T14:12:47.936Z,59.59
2023-01-17T14:14:55.783Z,59.88
2023-01-17T14:17:28.053Z,59.86
2023-01-17T14:19:30.997Z,59.75
2023-01-17T14:21:35.487Z,59.78
2023-01-17T14:23:57.460Z,59.59
2023-01-17T14:26:13.130Z,59.75
2023-01-17T14:28:24.029Z,59.73
2023-01-17T14:30:29.040Z,59.52
2023-01-17T14:32:33.984Z,59.61
2023-01-17T14:34:38.055Z,59.85
2023-01-17T14:36:41.042Z,59.67
2023-01-17T14:38:46.091Z,59.85
2023-01-17T14:40:55.117Z,59.61
2023-01-17T14:43:02.348Z,59.39
2023-01-17T14:45:12.728Z,59.77
2023-01-17T14:47:17.071Z,59.59
2023-01-17T14:49:24.092Z,59.50
2023-01-17T14:51:26.908Z,59.82
2023-01-17T14:53:33.930Z,59.69
2023-01-17T14:55:37.076Z,59.59
2023-01-17T14:57:43.390Z,59.44
2023-01-17T14:59:48.526Z,59.72
2023-01-17T15:02:07.164Z,59.92
2023-01-17T15:04:27.521Z,59.84
2023-01-17T15:06:38.212Z,59.74
2023-01-17T15:08:41.541Z,59.56
2023-01-17T15:10:51.571Z,59.82
2023-01-17T15:12:57.659Z,59.83
2023-01-17T15:15:02.673Z,59.96
2023-01-17T15:17:12.818Z,59.85
2023-01-17T15:19:19.932Z,59.70
2023-01-17T15:21:26.438Z,59.67
2023-01-17T15:23:34.493Z,59.58
2023-01-17T15:25:38.674Z,59.81
2023-01-17T15:27:50.842Z,59.93
2023-01-17T15:29:59.044Z,59.77
2023-01-17T15:32:03.809Z,60.01
2023-01-17T15:34:07.838Z,59.96
2023-01-17T15:36:24.809Z,59.84
2023-01-17T15:38:28.914Z,60.04
2023-01-17T15:40:37.716Z,60.17
2023-01-17T15:42:44.037Z,60.37
2023-01-17T15:44:49.375Z,60.24
2023-01-17T15:46:54.267Z,60.25
2023-01-17T15:49:13.040Z,60.34
2023-01-17T15:51:31.958Z,60.18
2023-01-17T15:53:37.238Z,60.08
2023-01-17T15:55:43.132Z,60.42
2023-01-17T15:57:47.431Z,60.33
2023-01-17T15:59:59.567Z,60.53
2023-01-17T16:02:03.863Z,60.37
2023-01-17T16:04:30.224Z,60.43
2023-01-17T16:06:45.441Z,60.72
2023-01-17T16:08:53.520Z,60.70
2023-01-17T16:11:01.677Z,60.32
2023-01-17T16:13:05.888Z,60.64
2023-01-17T16:15:13.480Z,60.61
2023-01-17T16:17:19.449Z,60.53
2023-01-17T16:19:27.010Z,60.26
2023-01-17T16:21:31.994Z,60.21
2023-01-17T16:23:34.668Z,60.33
2023-01-17T16:25:38.510Z,60.33
2023-01-17T16:27:43.067Z,60.13
2023-01-17T16:29:47.166Z,60.50
2023-01-17T16:31:49.940Z,60.13
2023-01-17T16:33:53.987Z,60.46
2023-01-17T16:35:56.908Z,60.35
2023-01-17T16:38:01.036Z,60.51
2023-01-17T16:40:04.023Z,60.26
2023-01-17T16:42:06.852Z,60.55
2023-01-17T16:44:15.127Z,60.03
2023-01-17T16:46:21.682Z,59.99
2023-01-17T16:48:24.420Z,60.10
2023-01-17T16:50:51.928Z,60.34
2023-01-17T16:52:56.137Z,60.22
2023-01-17T16:54:58.942Z,60.25
2023-01-17T16:57:01.572Z,60.51
2023-01-17T16:59:04.298Z,60.44
2023-01-17T17:01:12.653Z,60.67
2023-01-17T17:03:16.872Z,60.55
2023-01-17T17:05:20.226Z,60.48
2023-01-17T17:07:24.281Z,60.45
2023-01-17T17:09:27.072Z,60.45
2023-01-17T17:11:29.726Z,60.40
2023-01-17T17:13:35.551Z,60.60
2023-01-17T17:15:41.998Z,60.56
2023-01-17T17:17:44.864Z,60.67
2023-01-17T17:19:48.432Z,60.50
2023-01-17T17:21:51.512Z,60.48
2023-01-17T17:23:57.969Z,60.63
2023-01-17T17:26:00.792Z,60.80
2023-01-17T17:28:03.727Z,60.80
2023-01-17T17:30:07.327Z,60.82
2023-01-17T17:32:11.472Z,60.69
2023-01-17T17:34:15.637Z,60.59
2023-01-17T17:36:18.676Z,60.90
2023-01-17T17:38:21.480Z,60.90
2023-01-17T17:40:26.255Z,61.09
2023-01-17T17:42:28.924Z,60.68
2023-01-17T17:44:31.588Z,60.63
2023-01-17T17:46:39.875Z,60.88
2023-01-17T17:48:42.621Z,60.99
2023-01-17T17:50:45.291Z,60.95
2023-01-17T17:52:49.247Z,60.87
2023-01-17T17:54:52.384Z,60.80
2023-01-17T17:56:56.407Z,60.64
2023-01-17T17:58:59.669Z,60.65
2023-01-17T18:01:07.229Z,60.77
2023-01-17T18:03:09.938Z,60.65
2023-01-17T18:05:12.744Z,61.04
2023-01-17T18:07:15.460Z,60.60
2023-01-17T18:09:18.599Z,60.79
2023-01-17T18:11:23.751Z,60.91
2023-01-17T18:13:27.904Z,60.99
2023-01-17T18:15:30.536Z,60.79
2023-01-17T18:17:33.317Z,60.55
2023-01-17T18:19:36.135Z,60.68
2023-01-17T18:21:39.744Z,60.82
2023-01-17T18:23:44.649Z,60.72
2023-01-17T18:25:47.398Z,60.64
2023-01-17T18:27:50.342Z,60.65
2023-01-17T18:29:54.355Z,60.58
2023-01-17T18:31:57.241Z,60.38
2023-01-17T18:34:05.320Z,60.38
2023-01-17T18:36:10.303Z,60.30
2023-01-17T18:38:13.105Z,60.49
2023-01-17T18:40:16.281Z,60.60
2023-01-17T18:42:19.052Z,60.29
2023-01-17T18:44:22.668Z,60.49
2023-01-17T18:46:27.632Z,60.36
2023-01-17T18:48:30.794Z,60.44
2023-01-17T18:50:33.535Z,60.18
2023-01-17T18:52:37.075Z,59.83
2023-01-17T18:54:39.785Z,59.95
2023-01-17T18:56:42.871Z,59.75
2023-01-17T18:58:48.290Z,59.74
2023-01-17T19:00:51.372Z,59.62
2023-01-17T19:02:55.394Z,59.36
2023-01-17T19:04:58.048Z,59.63
2023-01-17T19:07:00.664Z,59.37
2023-01-17T19:09:03.570Z,59.18
2023-01-17T19:11:06.650Z,59.29
2023-01-17T19:13:09.294Z,59.03
2023-01-17T19:15:12.353Z,58.85
2023-01-17T19:17:15.026Z,58.91
2023-01-17T19:19:19.134Z,59.03
2023-01-17T19:21:23.765Z,58.78
2023-01-17T19:23:26.441Z,58.51
2023-01-17T19:25:30.179Z,58.64
2023-01-17T19:27:32.962Z,58.45
2023-01-17T19:29:35.641Z,58.46
2023-01-17T19:31:42.387Z,58.46
2023-01-17T19:33:46.933Z,58.51
2023-01-17T19:35:51.075Z,58.62
2023-01-17T19:37:56.022Z,58.72
2023-01-17T19:39:58.818Z,58.34
2023-01-17T19:42:01.459Z,58.50
2023-01-17T19:44:06.360Z,58.44
2023-01-17T19:46:10.037Z,58.66
2023-01-17T19:48:14.409Z,58.44
2023-01-17T19:50:18.725Z,58.78
2023-01-17T19:52:24.067Z,58.68
2023-01-17T19:54:26.786Z,58.53
2023-01-17T19:56:30.691Z,58.51
2023-01-17T19:58:33.426Z,58.42
2023-01-17T20:00:45.867Z,58.24
2023-01-17T20:02:50.252Z,58.43
2023-01-17T20:04:52.922Z,58.55
2023-01-17T20:06:55.779Z,58.51
2023-01-17T20:09:00.257Z,58.40
2023-01-17T20:11:03.903Z,58.31
2023-01-17T20:13:06.921Z,58.36
2023-01-17T20:15:11.523Z,58.38
2023-01-17T20:17:14.327Z,58.40
2023-01-17T20:19:17.104Z,58.29
2023-01-17T20:21:24.251Z,58.31
2023-01-17T20:23:27.032Z,58.14
2023-01-17T20:25:31.237Z,58.30
2023-01-17T20:27:34.738Z,58.04
2023-01-17T20:29:40.539Z,58.33
2023-01-17T20:31:44.382Z,58.11
2023-01-17T20:33:50.549Z,57.93
2023-01-17T20:36:08.747Z,58.21
2023-01-17T20:38:12.731Z,58.30
2023-01-17T20:40:17.420Z,58.00
2023-01-17T20:42:21.557Z,58.15
2023-01-17T20:44:24.433Z,58.30
2023-01-17T20:46:29.707Z,58.05
2023-01-17T20:48:32.361Z,58.19
2023-01-17T20:50:36.842Z,57.93
2023-01-17T20:52:40.118Z,58.19
2023-01-17T20:54:43.410Z,58.05
2023-01-17T20:56:47.363Z,58.17
2023-01-17T20:58:51.974Z,58.00
2023-01-17T21:00:55.973Z,57.99
2023-01-17T21:02:58.776Z,58.40
2023-01-17T21:05:03.601Z,58.18
2023-01-17T21:07:06.753Z,58.11
2023-01-17T21:09:19.136Z,58.26
2023-01-17T21:11:24.203Z,58.15
2023-01-17T21:13:27.708Z,58.39
2023-01-17T21:15:32.064Z,58.44
2023-01-17T21:17:35.988Z,58.43
2023-01-17T21:19:38.659Z,58.26
2023-01-17T21:21:41.439Z,58.32
2023-01-17T21:23:45.110Z,58.35
2023-01-17T21:26:06.294Z,58.35
2023-01-17T21:28:08.925Z,58.34
2023-01-17T21:30:13.135Z,58.26
2023-01-17T21:32:17.314Z,58.35
2023-01-17T21:34:20.074Z,58.12
2023-01-17T21:36:25.098Z,58.25
2023-01-17T21:38:27.779Z,58.49
2023-01-17T21:40:30.485Z,58.39
2023-01-17T21:42:33.258Z,58.33
2023-01-17T21:44:37.908Z,58.25
2023-01-17T21:46:41.935Z,58.25
2023-01-17T21:48:46.289Z,58.42
2023-01-17T21:50:52.515Z,58.16
2023-01-17T21:52:55.248Z,58.16
2023-01-17T21:55:27.106Z,58.38
2023-01-17T21:57:49.428Z,58.20
2023-01-17T21:59:52.359Z,58.04
2023-01-17T22:01:55.080Z,58.08
2023-01-17T22:04:01.162Z,58.20
2023-01-17T22:06:04.883Z,57.88
2023-01-17T22:08:15.153Z,58.31
2023-01-17T22:10:26.851Z,57.93
2023-01-17T22:12:33.467Z,57.95
2023-01-17T22:14:39.749Z,57.92
2023-01-17T22:16:43.941Z,58.16
2023-01-17T22:18:47.402Z,58.05
2023-01-17T22:20:51.628Z,57.87
2023-01-17T22:22:54.738Z,57.93
2023-01-17T22:24:57.569Z,57.84
2023-01-17T22:27:00.475Z,57.65
2023-01-17T22:29:04.342Z,57.73
2023-01-17T22:31:10.694Z,57.72
2023-01-17T22:33:23.405Z,57.55
2023-01-17T22:35:26.798Z,57.56
2023-01-17T22:37:30.994Z,57.64
2023-01-17T22:39:33.618Z,57.26
2023-01-17T22:41:39.425Z,57.50
2023-01-17T22:43:44.573Z,57.29
2023-01-17T22:45:47.275Z,57.36
2023-01-17T22:47:50.075Z,57.40
2023-01-17T22:49:52.693Z,57.15
